Reedsville, Wisconsin
Current Conditions -  °F | °C
As of 1:08 PM on Friday 24 Oct 2014 (Local Time) from KMTW Reporting Station
Overcast Overcast  
Wind Chill: 55°   Ceiling: 1100
Heat Index: 55°   Visibility: 10mi
Dew Point: 50°   Wind: 7mph
Humidity: 82%   Direction: 250°WSW
Pressure: 29.98"   Gusts: NA
Location:  44.15°N, 87.96°W
Report Text: KMTW 241808Z AUTO 25006KT 10SM OVC011 13/10 A2998 RMK AO2
Loading
Personal Weather Stations






























Interactive Weather Map
Tropical Storm Tracking
New forecast layout! Learn more

10-Day Weather Forecast

Advertisements
Track Severe Weather on mobile